Time;durP1;ratioP1;P1;durP2;ratioP2;P2;SDS_P1;SDS_P2;PMS_P1;PMS_P2;Temp;Humidity;BMP_temperature;BMP_pressure;BME280_temperature;BME280_humidity;BME280_pressure;Samples;Min_cycle;Max_cycle;Signal;HPM_P1;HPM_P2
2021/05/26 00:01:59;;;;;;;0.60;0.20;;;9.40;92.90;;;;;;5038571;28;20299;-70
2021/05/26 00:04:25;;;;;;;0.68;0.38;;;9.40;93.10;;;;;;5038150;28;20399;-70
2021/05/26 00:06:51;;;;;;;1.15;0.35;;;9.40;93.20;;;;;;5037810;28;20104;-70
2021/05/26 00:09:16;;;;;;;0.50;0.40;;;9.40;91.90;;;;;;5038036;28;20022;-71
2021/05/26 00:11:42;;;;;;;1.10;0.30;;;9.50;90.30;;;;;;5038001;28;20033;-70
2021/05/26 00:14:09;;;;;;;2.08;0.30;;;9.60;90.30;;;;;;5037583;28;20064;-70
2021/05/26 00:16:34;;;;;;;1.00;0.30;;;9.70;89.60;;;;;;5037387;28;20519;-70
2021/05/26 00:19:00;;;;;;;0.52;0.30;;;9.80;89.00;;;;;;5037887;28;20026;-70
2021/05/26 00:21:26;;;;;;;1.67;0.30;;;9.90;90.20;;;;;;5037721;28;20030;-70
2021/05/26 00:23:52;;;;;;;3.30;0.30;;;9.90;89.60;;;;;;5037826;28;20021;-70
2021/05/26 00:26:17;;;;;;;4.28;0.45;;;9.80;90.20;;;;;;5037358;28;20029;-70
2021/05/26 00:28:45;;;;;;;2.78;0.38;;;9.80;90.20;;;;;;5037679;28;20096;-70
2021/05/26 00:31:12;;;;;;;2.05;0.30;;;9.70;91.80;;;;;;5037576;28;20038;-70
2021/05/26 00:33:38;;;;;;;2.33;0.38;;;9.60;92.30;;;;;;5037425;28;20017;-70
2021/05/26 00:36:04;;;;;;;1.10;0.40;;;9.60;92.60;;;;;;5037492;28;20079;-70
2021/05/26 00:38:30;;;;;;;0.75;0.30;;;9.50;90.30;;;;;;5037538;28;20365;-70
2021/05/26 00:40:56;;;;;;;2.15;0.40;;;9.60;90.40;;;;;;5037367;28;20025;-70
2021/05/26 00:43:21;;;;;;;1.38;0.50;;;9.60;90.60;;;;;;5037183;28;20108;-70
2021/05/26 00:45:47;;;;;;;0.75;0.30;;;9.60;89.30;;;;;;5037403;28;20051;-70
2021/05/26 00:48:13;;;;;;;0.70;0.40;;;9.70;89.20;;;;;;5037066;28;20131;-70
2021/05/26 00:50:40;;;;;;;2.25;0.30;;;9.80;87.80;;;;;;5052537;28;20030;-70
2021/05/26 00:53:12;;;;;;;1.88;0.40;;;9.90;88.30;;;;;;5036684;28;20040;-70
2021/05/26 00:55:38;;;;;;;1.05;0.35;;;10.00;88.00;;;;;;5036921;28;20039;-70
2021/05/26 00:58:05;;;;;;;0.85;0.30;;;10.00;88.10;;;;;;5036872;28;20028;-70
2021/05/26 01:00:34;;;;;;;0.93;0.43;;;10.00;88.00;;;;;;5037110;28;20029;-70
2021/05/26 01:03:00;;;;;;;0.40;0.20;;;9.90;87.30;;;;;;5036857;28;20018;-70
2021/05/26 01:05:27;;;;;;;1.00;0.40;;;10.00;86.90;;;;;;5036751;28;20026;-70
2021/05/26 01:07:53;;;;;;;2.85;0.30;;;10.00;87.00;;;;;;5037105;28;20026;-70
2021/05/26 01:10:22;;;;;;;3.10;0.45;;;10.10;86.30;;;;;;5036999;28;20083;-70
2021/05/26 01:12:48;;;;;;;1.15;0.40;;;10.10;86.10;;;;;;5037041;28;20021;-70
2021/05/26 01:15:16;;;;;;;0.50;0.50;;;10.20;85.30;;;;;;5036551;28;20052;-70
2021/05/26 01:17:42;;;;;;;0.40;0.20;;;10.20;85.70;;;;;;5036522;28;20430;-70
2021/05/26 01:20:18;;;;;;;2.75;0.40;;;10.30;84.80;;;;;;5036571;28;20068;-70
2021/05/26 01:22:44;;;;;;;2.15;0.30;;;10.30;85.20;;;;;;5037130;28;20290;-70
2021/05/26 01:25:10;;;;;;;0.93;0.30;;;10.40;83.30;;;;;;5036605;28;20025;-70
2021/05/26 01:27:36;;;;;;;0.38;0.30;;;10.40;83.90;;;;;;5036813;28;20022;-70
2021/05/26 01:30:06;;;;;;;0.40;0.28;;;10.50;83.20;;;;;;5036854;28;20303;-70
2021/05/26 01:32:32;;;;;;;0.30;0.20;;;10.50;83.50;;;;;;5036870;28;20025;-70
2021/05/26 01:34:57;;;;;;;0.50;0.22;;;10.60;83.20;;;;;;5036796;28;20060;-70
2021/05/26 01:37:23;;;;;;;4.47;0.45;;;10.60;83.10;;;;;;5036770;28;20082;-70
2021/05/26 01:39:50;;;;;;;0.43;0.35;;;10.60;83.90;;;;;;5036399;28;20029;-70
2021/05/26 01:42:32;;;;;;;0.80;0.30;;;10.60;82.90;;;;;;5036753;28;20043;-70
2021/05/26 01:44:58;;;;;;;0.80;0.30;;;10.60;82.60;;;;;;5036667;28;20104;-70
2021/05/26 01:47:24;;;;;;;1.75;0.25;;;10.60;83.00;;;;;;5036398;28;20029;-70
2021/05/26 01:49:50;;;;;;;0.32;0.20;;;10.50;83.10;;;;;;5036675;28;20028;-70
2021/05/26 01:52:16;;;;;;;0.50;0.20;;;10.60;82.90;;;;;;5036648;28;20047;-70
2021/05/26 01:54:41;;;;;;;0.50;0.30;;;10.50;83.10;;;;;;5036588;28;20119;-71
2021/05/26 01:57:07;;;;;;;2.15;0.28;;;10.50;82.50;;;;;;5036264;28;20021;-70
2021/05/26 01:59:33;;;;;;;0.30;0.20;;;10.50;83.00;;;;;;5036563;28;20029;-71
2021/05/26 02:01:59;;;;;;;0.75;0.32;;;10.50;82.00;;;;;;5036233;28;20108;-72
2021/05/26 02:04:25;;;;;;;0.52;0.30;;;10.50;81.90;;;;;;5036223;28;20030;-72
2021/05/26 02:07:04;;;;;;;1.00;0.30;;;10.60;81.30;;;;;;5039505;28;20036;-72
2021/05/26 02:09:30;;;;;;;1.52;0.20;;;10.60;81.20;;;;;;5039992;28;20038;-72
2021/05/26 02:14:40;;;;;;;1.42;0.57;;;10.60;81.50;;;;;;5040466;28;20107;-72
2021/05/26 02:17:06;;;;;;;2.22;0.38;;;10.60;80.90;;;;;;5039845;28;20053;-71
2021/05/26 02:19:32;;;;;;;0.50;0.28;;;10.60;80.80;;;;;;5039825;28;20432;-69
2021/05/26 02:21:58;;;;;;;0.52;0.30;;;10.60;80.80;;;;;;5040092;28;20032;-70
2021/05/26 02:24:23;;;;;;;0.93;0.28;;;10.60;82.30;;;;;;5039712;28;20376;-70
2021/05/26 02:26:49;;;;;;;0.40;0.20;;;10.50;85.30;;;;;;5039718;28;20021;-70
2021/05/26 02:29:15;;;;;;;0.60;0.20;;;10.40;86.40;;;;;;5039629;28;20013;-70
2021/05/26 02:31:40;;;;;;;0.75;0.30;;;10.20;85.10;;;;;;5039883;28;20060;-70
2021/05/26 02:34:06;;;;;;;2.67;0.30;;;10.00;85.80;;;;;;5039853;28;20318;-70
2021/05/26 02:36:32;;;;;;;1.65;0.30;;;9.80;87.90;;;;;;5039847;28;20021;-70
2021/05/26 02:38:59;;;;;;;0.50;0.30;;;9.70;87.30;;;;;;5039710;28;20049;-70
2021/05/26 02:41:24;;;;;;;0.68;0.30;;;9.60;88.50;;;;;;5039345;28;20382;-70
2021/05/26 02:43:50;;;;;;;1.85;0.32;;;9.50;88.70;;;;;;5039723;28;20033;-70
2021/05/26 02:46:16;;;;;;;0.50;0.30;;;9.40;89.20;;;;;;5039175;28;20432;-70
2021/05/26 02:48:42;;;;;;;1.08;0.30;;;9.30;89.40;;;;;;5039653;28;20029;-70
2021/05/26 02:51:07;;;;;;;3.05;0.38;;;9.20;89.10;;;;;;5039519;28;20043;-70
2021/05/26 02:53:33;;;;;;;0.57;0.40;;;9.20;89.70;;;;;;5039272;28;20429;-71
2021/05/26 02:55:59;;;;;;;1.23;0.32;;;9.10;90.70;;;;;;5039102;28;20108;-70
2021/05/26 02:58:25;;;;;;;0.73;0.40;;;9.10;90.90;;;;;;5039432;28;20034;-70
2021/05/26 03:00:50;;;;;;;0.90;0.45;;;9.00;90.60;;;;;;5038976;28;20030;-70
2021/05/26 03:03:16;;;;;;;1.10;0.47;;;9.10;90.70;;;;;;5039067;28;20044;-70
2021/05/26 03:05:42;;;;;;;0.77;0.25;;;9.10;90.20;;;;;;5039270;28;20144;-70
2021/05/26 03:08:07;;;;;;;0.88;0.35;;;9.20;90.80;;;;;;5038896;28;20022;-70
2021/05/26 03:10:33;;;;;;;3.70;0.55;;;9.20;90.70;;;;;;5038902;28;20028;-70
2021/05/26 03:12:59;;;;;;;3.67;0.82;;;9.20;89.70;;;;;;5038880;28;20404;-70
2021/05/26 03:15:24;;;;;;;1.40;0.30;;;9.20;88.30;;;;;;5039201;28;20108;-70
2021/05/26 03:17:50;;;;;;;0.57;0.30;;;9.40;86.90;;;;;;5038417;28;20349;-71
2021/05/26 03:20:17;;;;;;;0.50;0.30;;;9.50;87.50;;;;;;5038956;28;20029;-70
2021/05/26 03:22:43;;;;;;;1.40;0.30;;;9.60;88.00;;;;;;5039011;28;20022;-70
2021/05/26 03:25:12;;;;;;;1.27;0.30;;;9.60;88.00;;;;;;5038557;28;20432;-70
2021/05/26 03:27:39;;;;;;;2.67;0.70;;;9.60;88.90;;;;;;5038871;28;20025;-70
2021/05/26 03:30:09;;;;;;;0.70;0.25;;;9.50;90.00;;;;;;5038823;28;20029;-70
2021/05/26 03:32:36;;;;;;;0.68;0.30;;;9.40;89.40;;;;;;5038808;28;20029;-70
2021/05/26 03:35:02;;;;;;;4.38;0.43;;;9.30;89.30;;;;;;5038678;28;20033;-70
2021/05/26 03:37:28;;;;;;;0.98;0.30;;;9.30;89.30;;;;;;5038416;28;20037;-70
2021/05/26 03:39:54;;;;;;;1.00;0.40;;;9.20;89.70;;;;;;5038573;28;20029;-70
2021/05/26 03:42:20;;;;;;;1.17;0.50;;;9.20;90.00;;;;;;5037300;28;20084;-70
2021/05/26 03:44:45;;;;;;;1.45;0.40;;;9.20;89.40;;;;;;5038308;28;20029;-71
2021/05/26 03:47:11;;;;;;;1.27;0.45;;;9.20;89.80;;;;;;5038519;28;20026;-72
2021/05/26 03:49:37;;;;;;;0.40;0.25;;;9.20;90.90;;;;;;5038447;28;20322;-72
2021/05/26 03:52:02;;;;;;;1.05;0.30;;;9.20;89.70;;;;;;5038072;28;20024;-72
2021/05/26 03:54:28;;;;;;;0.50;0.30;;;9.20;89.70;;;;;;5038362;28;20071;-72
2021/05/26 03:56:54;;;;;;;0.50;0.30;;;9.20;90.00;;;;;;5038030;28;20029;-71
2021/05/26 03:59:20;;;;;;;1.42;0.43;;;9.20;90.00;;;;;;5038252;28;20045;-72
2021/05/26 04:01:46;;;;;;;0.43;0.35;;;9.20;90.70;;;;;;5037849;28;20036;-71
2021/05/26 04:04:11;;;;;;;0.43;0.30;;;9.30;90.20;;;;;;5037877;28;20055;-72
2021/05/26 04:06:37;;;;;;;0.80;0.32;;;9.30;91.10;;;;;;5037850;28;20025;-71
2021/05/26 04:09:04;;;;;;;1.60;0.30;;;9.30;92.30;;;;;;5038110;28;20060;-72
2021/05/26 04:11:30;;;;;;;0.60;0.40;;;9.20;93.00;;;;;;5038013;28;20134;-71
2021/05/26 04:13:56;;;;;;;0.68;0.30;;;9.20;90.10;;;;;;5037996;28;20021;-71
2021/05/26 04:16:21;;;;;;;2.30;0.30;;;9.30;90.30;;;;;;5037882;28;20318;-69
2021/05/26 04:18:47;;;;;;;1.00;0.40;;;9.30;90.90;;;;;;5037936;28;20084;-71
2021/05/26 04:21:14;;;;;;;0.75;0.30;;;9.40;91.70;;;;;;5037770;28;20116;-71
2021/05/26 04:23:40;;;;;;;0.88;0.40;;;9.40;91.70;;;;;;5037549;28;20025;-70
2021/05/26 04:26:06;;;;;;;0.50;0.32;;;9.50;90.60;;;;;;5037742;28;20366;-70
2021/05/26 04:28:31;;;;;;;2.25;0.60;;;9.50;91.10;;;;;;5036795;28;20056;-71
2021/05/26 04:30:57;;;;;;;1.45;0.30;;;9.60;89.40;;;;;;5037372;28;20112;-71
2021/05/26 04:33:24;;;;;;;1.60;0.35;;;9.60;88.90;;;;;;5037709;28;20032;-72
2021/05/26 04:35:50;;;;;;;1.50;0.40;;;9.80;85.90;;;;;;5037234;28;20112;-70
2021/05/26 04:38:16;;;;;;;1.02;0.50;;;10.00;85.00;;;;;;5037500;28;20300;-70
2021/05/26 04:40:42;;;;;;;0.70;0.40;;;10.30;83.60;;;;;;5037117;28;20051;-70
2021/05/26 04:43:08;;;;;;;1.40;0.40;;;10.40;85.40;;;;;;5037128;28;20025;-70
2021/05/26 04:45:33;;;;;;;1.92;0.73;;;10.50;85.50;;;;;;5037386;28;20026;-70
2021/05/26 04:47:59;;;;;;;0.30;0.20;;;10.60;86.80;;;;;;5037374;28;20021;-70
2021/05/26 04:50:25;;;;;;;1.67;0.30;;;10.70;85.70;;;;;;5037310;28;20030;-70
2021/05/26 04:52:52;;;;;;;1.88;0.28;;;10.80;84.30;;;;;;5037325;28;20034;-70
2021/05/26 04:55:18;;;;;;;3.20;0.32;;;11.00;85.90;;;;;;5036929;28;20076;-70
2021/05/26 04:57:44;;;;;;;0.95;0.35;;;11.10;86.00;;;;;;5036917;28;20410;-70
2021/05/26 05:00:10;;;;;;;0.70;0.38;;;11.30;85.40;;;;;;5036809;28;20076;-70
2021/05/26 05:02:36;;;;;;;1.73;0.38;;;11.40;82.30;;;;;;5036884;28;20025;-70
2021/05/26 05:05:02;;;;;;;0.70;0.40;;;11.70;79.60;;;;;;5037076;28;20021;-70
2021/05/26 05:07:28;;;;;;;1.17;0.43;;;12.00;79.70;;;;;;5036806;28;20088;-70
2021/05/26 05:09:54;;;;;;;0.43;0.30;;;12.20;79.60;;;;;;5036783;28;20033;-70
2021/05/26 05:12:19;;;;;;;0.63;0.32;;;12.40;75.00;;;;;;5037117;28;20017;-70
2021/05/26 05:14:45;;;;;;;2.20;0.32;;;12.60;76.50;;;;;;5036573;28;20029;-70
2021/05/26 05:17:11;;;;;;;1.20;0.52;;;12.70;77.10;;;;;;5036674;28;20065;-70
2021/05/26 05:19:36;;;;;;;0.98;0.40;;;12.90;75.50;;;;;;5036986;28;20041;-70
2021/05/26 05:22:02;;;;;;;0.75;0.30;;;13.10;72.80;;;;;;5036877;28;20476;-70
2021/05/26 05:24:28;;;;;;;0.52;0.28;;;13.20;73.40;;;;;;5036886;28;20030;-70
2021/05/26 05:26:54;;;;;;;0.47;0.22;;;13.50;74.90;;;;;;5036883;28;20028;-70
2021/05/26 05:29:19;;;;;;;0.47;0.20;;;13.70;75.90;;;;;;5036603;28;20029;-70
2021/05/26 05:31:45;;;;;;;1.70;0.30;;;13.80;73.60;;;;;;5036525;28;20036;-70
2021/05/26 05:34:11;;;;;;;0.85;0.30;;;13.80;78.10;;;;;;5036521;28;20181;-70
2021/05/26 05:36:36;;;;;;;1.00;0.20;;;13.80;77.40;;;;;;5036811;28;20080;-70
2021/05/26 05:39:02;;;;;;;5.07;0.40;;;13.90;77.20;;;;;;5036617;28;20325;-70
2021/05/26 05:41:28;;;;;;;0.77;0.30;;;14.00;77.50;;;;;;5040477;28;20029;-70
2021/05/26 05:43:54;;;;;;;2.35;0.30;;;14.00;78.00;;;;;;5040857;28;20028;-70
2021/05/26 05:46:19;;;;;;;0.55;0.30;;;14.00;75.90;;;;;;5040902;28;20029;-70
2021/05/26 05:48:45;;;;;;;0.38;0.28;;;13.90;74.80;;;;;;5040806;28;20030;-70
2021/05/26 05:51:11;;;;;;;0.80;0.30;;;13.80;77.80;;;;;;5040697;28;20094;-70
2021/05/26 05:53:36;;;;;;;1.00;0.25;;;13.80;78.50;;;;;;5040391;28;20060;-70
2021/05/26 05:56:03;;;;;;;2.85;0.38;;;14.10;78.50;;;;;;5040539;28;20018;-70
2021/05/26 05:58:29;;;;;;;0.22;0.20;;;14.30;77.00;;;;;;5040582;28;20036;-70
2021/05/26 06:00:55;;;;;;;0.57;0.30;;;14.60;78.00;;;;;;5040478;28;20025;-70
2021/05/26 06:03:20;;;;;;;0.50;0.30;;;14.70;78.70;;;;;;5040521;28;20314;-70
2021/05/26 06:05:46;;;;;;;0.68;0.20;;;14.80;78.10;;;;;;5040017;28;20029;-70
2021/05/26 06:08:12;;;;;;;1.00;0.40;;;15.00;73.90;;;;;;5040367;28;20029;-71
2021/05/26 06:10:37;;;;;;;0.57;0.30;;;15.50;70.50;;;;;;5040033;28;20413;-71
2021/05/26 06:13:07;;;;;;;1.15;0.30;;;16.20;71.20;;;;;;5040303;28;20112;-70
2021/05/26 06:15:34;;;;;;;1.08;0.22;;;16.80;67.70;;;;;;5040186;28;20037;-70
2021/05/26 06:18:00;;;;;;;0.60;0.30;;;17.60;65.60;;;;;;5039725;28;20150;-70
2021/05/26 06:20:26;;;;;;;0.85;0.45;;;18.00;63.30;;;;;;5039764;28;20209;-71
2021/05/26 06:22:52;;;;;;;0.70;0.28;;;18.30;62.80;;;;;;5039844;28;20021;-71
2021/05/26 06:25:18;;;;;;;1.42;0.40;;;18.70;63.30;;;;;;5039998;28;20079;-71
2021/05/26 06:27:44;;;;;;;1.15;0.20;;;19.00;62.10;;;;;;5039986;28;20492;-71
2021/05/26 06:30:10;;;;;;;0.85;0.20;;;19.40;60.60;;;;;;5039962;28;20048;-70
2021/05/26 06:32:36;;;;;;;0.55;0.30;;;19.90;60.90;;;;;;5039950;28;20326;-71
2021/05/26 06:35:03;;;;;;;0.40;0.20;;;20.30;58.90;;;;;;5039795;28;20021;-71
2021/05/26 06:37:29;;;;;;;1.15;0.30;;;20.70;59.10;;;;;;5039816;28;20025;-70
2021/05/26 06:39:54;;;;;;;0.50;0.28;;;21.10;56.90;;;;;;5039444;28;20322;-71
2021/05/26 06:42:23;;;;;;;0.77;0.20;;;21.40;54.80;;;;;;5039468;28;20022;-71
2021/05/26 06:44:49;;;;;;;1.42;0.40;;;21.60;54.80;;;;;;5039431;28;20036;-70
2021/05/26 06:47:15;;;;;;;0.55;0.30;;;21.70;55.10;;;;;;5039636;28;20030;-70
2021/05/26 06:49:41;;;;;;;0.77;0.20;;;21.80;56.50;;;;;;5039329;28;20025;-70
2021/05/26 06:52:07;;;;;;;0.55;0.30;;;21.80;57.90;;;;;;5038964;28;20041;-70
2021/05/26 06:54:33;;;;;;;0.85;0.30;;;21.90;56.80;;;;;;5039491;28;20064;-71
2021/05/26 06:57:00;;;;;;;3.47;0.28;;;22.10;53.40;;;;;;5039164;28;20052;-70
2021/05/26 06:59:26;;;;;;;1.00;0.30;;;22.10;54.80;;;;;;5039171;28;20025;-71
2021/05/26 07:01:51;;;;;;;0.50;0.30;;;22.00;55.00;;;;;;5039312;28;20076;-71
2021/05/26 07:04:17;;;;;;;1.42;0.50;;;21.90;53.20;;;;;;5039345;28;20417;-71
2021/05/26 07:06:44;;;;;;;0.70;0.30;;;21.80;53.60;;;;;;5039302;28;20313;-70
2021/05/26 07:09:10;;;;;;;0.52;0.28;;;22.00;55.90;;;;;;5039269;28;20045;-71
2021/05/26 07:11:36;;;;;;;0.70;0.30;;;21.90;54.30;;;;;;5038902;28;20369;-70
2021/05/26 07:14:01;;;;;;;0.75;0.30;;;21.70;54.80;;;;;;5039065;28;20029;-71
2021/05/26 07:16:27;;;;;;;1.05;0.40;;;21.40;55.50;;;;;;5038636;28;20042;-70
2021/05/26 07:18:57;;;;;;;1.30;0.30;;;21.20;56.60;;;;;;5038706;28;20038;-71
2021/05/26 07:21:23;;;;;;;2.92;0.40;;;21.20;56.30;;;;;;5038905;28;20029;-71
2021/05/26 07:23:48;;;;;;;1.00;0.47;;;20.80;56.60;;;;;;5038720;28;20314;-70
2021/05/26 07:26:14;;;;;;;1.13;0.30;;;20.90;57.10;;;;;;5038859;28;20045;-70
2021/05/26 07:28:41;;;;;;;3.20;0.35;;;20.90;56.70;;;;;;5038614;28;20022;-70
2021/05/26 07:31:07;;;;;;;3.00;0.30;;;21.10;54.80;;;;;;5038877;28;20040;-71
2021/05/26 07:33:33;;;;;;;0.70;0.30;;;21.30;52.70;;;;;;5038562;28;20326;-71
2021/05/26 07:35:58;;;;;;;1.67;0.30;;;21.40;55.70;;;;;;5038691;28;20021;-71
2021/05/26 07:38:24;;;;;;;1.33;0.50;;;21.40;54.60;;;;;;5038731;28;20408;-71
2021/05/26 07:40:50;;;;;;;1.15;0.90;;;21.20;52.50;;;;;;5038242;28;20322;-71
2021/05/26 07:43:15;;;;;;;1.60;0.50;;;21.40;54.20;;;;;;5038417;28;20030;-70
2021/05/26 07:45:41;;;;;;;0.90;0.30;;;21.70;55.80;;;;;;5038658;28;20042;-71
2021/05/26 07:48:07;;;;;;;1.15;0.30;;;21.80;53.50;;;;;;5038159;28;20034;-71
2021/05/26 07:50:36;;;;;;;1.67;0.30;;;22.00;53.10;;;;;;5038457;28;20026;-71
2021/05/26 07:53:03;;;;;;;0.30;0.20;;;22.20;54.30;;;;;;5038133;28;20040;-71
2021/05/26 07:55:29;;;;;;;1.88;0.73;;;22.50;53.70;;;;;;5037991;28;20034;-71
2021/05/26 07:57:54;;;;;;;0.85;0.30;;;22.50;51.90;;;;;;5038348;28;20083;-71
2021/05/26 08:00:21;;;;;;;1.52;0.22;;;22.40;52.40;;;;;;5037901;28;20045;-71
2021/05/26 08:02:48;;;;;;;0.95;0.38;;;22.50;53.80;;;;;;5037181;28;20021;-70
2021/05/26 08:05:14;;;;;;;2.05;0.60;;;22.30;52.30;;;;;;5037665;28;20100;-70
2021/05/26 08:07:39;;;;;;;2.03;0.38;;;22.60;54.80;;;;;;5037839;28;20048;-71
2021/05/26 08:10:06;;;;;;;1.27;0.25;;;22.90;53.10;;;;;;5038132;28;20056;-70
2021/05/26 08:12:32;;;;;;;1.38;0.40;;;23.10;52.70;;;;;;5038070;28;20032;-71
2021/05/26 08:14:58;;;;;;;0.52;0.22;;;23.10;52.80;;;;;;5037719;28;20148;-71
2021/05/26 08:17:24;;;;;;;1.58;0.50;;;23.20;51.50;;;;;;5037456;28;20450;-70
2021/05/26 08:19:50;;;;;;;3.00;0.50;;;23.20;52.50;;;;;;5037533;28;20018;-70
2021/05/26 08:22:15;;;;;;;1.48;0.45;;;23.30;51.60;;;;;;5037555;28;20133;-71
2021/05/26 08:24:41;;;;;;;2.03;0.50;;;23.30;53.00;;;;;;5037472;28;20071;-71
2021/05/26 08:27:07;;;;;;;2.25;0.65;;;23.00;52.20;;;;;;5037486;28;20029;-70
2021/05/26 08:29:34;;;;;;;1.40;0.50;;;22.90;54.00;;;;;;5037413;28;20017;-70
2021/05/26 08:32:01;;;;;;;2.85;0.40;;;22.80;54.20;;;;;;5037354;28;20033;-70
2021/05/26 08:34:27;;;;;;;1.13;0.57;;;22.70;54.10;;;;;;5037357;28;20031;-71
2021/05/26 08:36:53;;;;;;;1.23;0.63;;;22.80;53.70;;;;;;5037591;28;20029;-70
2021/05/26 08:39:18;;;;;;;0.77;0.40;;;22.90;54.50;;;;;;5037232;28;20041;-71
2021/05/26 08:41:45;;;;;;;1.10;0.70;;;23.40;53.40;;;;;;5037407;28;20030;-70
2021/05/26 08:44:14;;;;;;;2.97;0.73;;;23.20;52.20;;;;;;5037116;28;20029;-70
2021/05/26 08:46:41;;;;;;;2.30;0.50;;;22.90;53.70;;;;;;5037408;28;20022;-70
2021/05/26 08:49:07;;;;;;;1.35;0.45;;;23.30;53.30;;;;;;5037056;28;20417;-71
2021/05/26 08:51:34;;;;;;;1.17;0.32;;;23.70;53.00;;;;;;5037101;28;20053;-71
2021/05/26 08:54:00;;;;;;;0.75;0.38;;;24.10;54.80;;;;;;5037309;28;20061;-70
2021/05/26 08:56:25;;;;;;;1.58;0.50;;;24.20;51.20;;;;;;5037303;28;20358;-70
2021/05/26 08:58:51;;;;;;;1.67;0.40;;;24.20;51.50;;;;;;5037283;28;20053;-71
2021/05/26 09:01:19;;;;;;;2.03;0.70;;;24.30;53.20;;;;;;5036839;28;20039;-70
2021/05/26 09:03:47;;;;;;;3.40;0.63;;;24.10;51.20;;;;;;5036947;28;20056;-71
2021/05/26 09:06:16;;;;;;;1.67;0.57;;;24.00;53.00;;;;;;5037072;28;20031;-71
2021/05/26 09:08:50;;;;;;;1.30;0.50;;;24.20;52.20;;;;;;5036851;28;20410;-71
2021/05/26 09:11:30;;;;;;;1.30;0.40;;;24.10;51.70;;;;;;5036787;28;20439;-71
2021/05/26 09:13:56;;;;;;;1.95;0.65;;;24.00;56.20;;;;;;5036525;28;20025;-71
2021/05/26 09:16:24;;;;;;;1.95;0.57;;;24.20;53.70;;;;;;5036889;28;20480;-71
2021/05/26 09:19:01;;;;;;;2.88;0.80;;;24.50;52.20;;;;;;5037026;28;20064;-71
2021/05/26 09:21:51;;;;;;;2.92;0.60;;;24.80;51.10;;;;;;5036894;28;20326;-71
2021/05/26 09:24:20;;;;;;;1.63;0.63;;;24.70;55.10;;;;;;5036926;28;20063;-71
2021/05/26 09:27:00;;;;;;;2.35;0.60;;;24.70;51.30;;;;;;5036933;28;20060;-71
2021/05/26 09:29:34;;;;;;;4.40;0.90;;;24.50;52.60;;;;;;5036618;28;20030;-71
2021/05/26 09:32:24;;;;;;;2.28;0.60;;;24.60;52.70;;;;;;5036855;28;20044;-71
2021/05/26 09:34:51;;;;;;;2.35;0.60;;;24.60;52.20;;;;;;5036510;28;20025;-71
2021/05/26 09:37:22;;;;;;;2.97;0.70;;;24.40;57.00;;;;;;5036806;28;20033;-71
2021/05/26 09:39:53;;;;;;;1.42;0.70;;;24.40;56.30;;;;;;5036757;28;20427;-71
2021/05/26 09:42:45;;;;;;;3.92;0.85;;;24.30;52.40;;;;;;5036473;28;20028;-71
2021/05/26 09:45:19;;;;;;;3.97;1.40;;;24.60;59.00;;;;;;5036611;28;20030;-71
2021/05/26 09:47:50;;;;;;;2.22;0.93;;;24.80;55.60;;;;;;5036460;28;20430;-71
2021/05/26 09:50:30;;;;;;;2.25;0.57;;;25.00;54.60;;;;;;5036672;28;20037;-70
2021/05/26 09:53:04;;;;;;;3.70;0.70;;;24.90;51.90;;;;;;5036737;28;20072;-71
2021/05/26 09:55:39;;;;;;;3.20;0.60;;;24.80;54.30;;;;;;5036644;28;20353;-71
2021/05/26 09:58:08;;;;;;;5.28;0.93;;;24.60;54.80;;;;;;5036678;28;20028;-70
2021/05/26 10:00:35;;;;;;;1.27;0.50;;;24.60;60.30;;;;;;5036237;28;20037;-70
2021/05/26 10:03:01;;;;;;;2.75;0.90;;;24.60;51.80;;;;;;5036260;28;20061;-70
2021/05/26 10:05:27;;;;;;;1.70;0.70;;;24.60;51.10;;;;;;5036514;28;20034;-70
2021/05/26 10:08:02;;;;;;;3.95;0.90;;;24.60;51.00;;;;;;5036489;28;20025;-70
2021/05/26 10:10:29;;;;;;;2.83;0.80;;;24.50;53.20;;;;;;5036186;28;20033;-70
2021/05/26 10:13:05;;;;;;;2.97;0.82;;;24.20;53.80;;;;;;5036494;28;20329;-70
2021/05/26 10:15:33;;;;;;;2.15;0.75;;;24.20;57.00;;;;;;5034656;28;20037;-70
2021/05/26 10:18:01;;;;;;;4.18;0.88;;;24.50;53.20;;;;;;5028466;28;20061;-70
2021/05/26 10:20:29;;;;;;;2.42;0.60;;;24.70;51.90;;;;;;5016588;28;20054;-70
2021/05/26 10:22:57;;;;;;;1.75;0.52;;;25.00;54.30;;;;;;5016338;28;20026;-70
2021/05/26 10:25:24;;;;;;;3.88;0.70;;;25.20;53.60;;;;;;5016532;28;20022;-70
2021/05/26 10:27:51;;;;;;;1.50;0.80;;;24.90;51.20;;;;;;5019418;28;20032;-70
2021/05/26 10:30:19;;;;;;;3.22;1.45;;;24.70;52.40;;;;;;5019792;28;20041;-70
2021/05/26 10:32:52;;;;;;;3.22;0.88;;;24.80;57.60;;;;;;5020380;28;20338;-70
2021/05/26 10:35:19;;;;;;;2.92;0.70;;;24.80;57.00;;;;;;5019752;28;20304;-71
2021/05/26 10:37:46;;;;;;;1.60;0.80;;;24.90;54.20;;;;;;5020064;28;20056;-70
2021/05/26 10:40:33;;;;;;;8.20;1.13;;;25.00;55.40;;;;;;5019950;28;20017;-70
2021/05/26 10:43:29;;;;;;;2.67;1.10;;;24.80;50.90;;;;;;5020022;28;20034;-70
2021/05/26 10:45:56;;;;;;;3.40;1.05;;;24.70;51.40;;;;;;5014895;28;20330;-69
2021/05/26 10:48:43;;;;;;;3.03;1.38;;;24.50;57.00;;;;;;5019852;28;20026;-70
2021/05/26 10:51:11;;;;;;;2.70;1.13;;;24.30;55.50;;;;;;5019459;28;20091;-70
2021/05/26 10:53:38;;;;;;;2.92;1.08;;;24.10;55.40;;;;;;5019543;28;20022;-70
2021/05/26 10:56:04;;;;;;;4.80;1.40;;;24.00;58.00;;;;;;5019387;28;20030;-70
2021/05/26 10:58:41;;;;;;;2.53;1.00;;;24.20;55.60;;;;;;5019350;28;20032;-70
2021/05/26 11:01:10;;;;;;;5.03;1.55;;;24.70;55.10;;;;;;5019619;28;20052;-69
2021/05/26 11:03:36;;;;;;;5.35;1.60;;;24.70;56.80;;;;;;5019344;28;20407;-70
2021/05/26 11:06:28;;;;;;;3.25;1.30;;;24.70;58.30;;;;;;5019482;28;20026;-69
2021/05/26 11:08:55;;;;;;;6.28;1.60;;;24.60;55.40;;;;;;5019055;28;20026;-70
2021/05/26 11:11:34;;;;;;;4.35;1.42;;;23.70;53.50;;;;;;5019109;28;20026;-70
2021/05/26 11:14:03;;;;;;;4.57;1.65;;;23.10;57.60;;;;;;5019064;28;20033;-70
2021/05/26 11:16:41;;;;;;;5.30;1.80;;;22.90;57.00;;;;;;5019143;28;20066;-70
2021/05/26 11:19:16;;;;;;;8.23;2.60;;;23.20;58.00;;;;;;5019069;28;20091;-70
2021/05/26 11:22:01;;;;;;;3.22;1.55;;;23.40;54.40;;;;;;5019246;28;20029;-70
2021/05/26 11:24:32;;;;;;;7.25;1.63;;;23.50;58.50;;;;;;5018882;28;20033;-70
2021/05/26 11:26:59;;;;;;;4.80;1.67;;;23.50;55.00;;;;;;5019193;28;20369;-70
2021/05/26 11:29:29;;;;;;;4.72;1.60;;;23.40;53.90;;;;;;5019084;28;20033;-70
2021/05/26 11:32:11;;;;;;;4.22;1.70;;;23.20;56.50;;;;;;5019021;28;20291;-70
2021/05/26 11:34:39;;;;;;;3.50;1.70;;;23.20;62.40;;;;;;5018963;28;20048;-69
2021/05/26 11:37:05;;;;;;;2.90;1.30;;;23.20;56.50;;;;;;5018805;28;20026;-70
2021/05/26 11:39:33;;;;;;;5.15;1.38;;;23.40;62.00;;;;;;5018622;28;20068;-70
2021/05/26 11:42:18;;;;;;;5.45;2.00;;;23.40;54.20;;;;;;5018740;28;20026;-70
2021/05/26 11:44:52;;;;;;;3.05;2.13;;;23.10;58.10;;;;;;5018854;28;20050;-70
2021/05/26 11:47:47;;;;;;;4.45;1.80;;;23.00;60.60;;;;;;5018803;28;20125;-70
2021/05/26 11:50:15;;;;;;;2.75;2.03;;;22.90;51.80;;;;;;5018765;28;20018;-70
2021/05/26 11:52:49;;;;;;;3.42;1.58;;;22.40;54.10;;;;;;5018700;28;20109;-70
2021/05/26 11:55:18;;;;;;;4.38;1.40;;;22.10;61.90;;;;;;5018664;28;20046;-70
2021/05/26 11:57:46;;;;;;;3.00;1.50;;;22.20;60.80;;;;;;5018248;28;20025;-70
2021/05/26 12:00:18;;;;;;;2.78;1.33;;;22.20;61.40;;;;;;5018139;28;20101;-70
2021/05/26 12:02:59;;;;;;;2.75;1.58;;;22.30;59.80;;;;;;5018535;28;20026;-70
2021/05/26 12:05:48;;;;;;;7.45;2.05;;;22.00;58.60;;;;;;5018093;28;20021;-70
2021/05/26 12:08:22;;;;;;;5.20;1.40;;;21.90;60.60;;;;;;5018449;28;20033;-70
2021/05/26 12:10:51;;;;;;;3.60;1.75;;;21.80;62.80;;;;;;5017979;28;20036;-70
2021/05/26 12:13:22;;;;;;;1.90;1.13;;;21.70;62.80;;;;;;5018339;28;20100;-70
2021/05/26 12:15:49;;;;;;;5.85;1.50;;;21.70;58.90;;;;;;5018352;28;20056;-70
2021/05/26 12:18:15;;;;;;;5.03;1.55;;;21.80;62.30;;;;;;5017755;28;20069;-70
2021/05/26 12:20:46;;;;;;;3.78;1.67;;;21.80;61.10;;;;;;5017797;28;20500;-70
2021/05/26 12:23:12;;;;;;;2.47;1.42;;;21.80;59.40;;;;;;5017848;28;20030;-70
2021/05/26 12:25:41;;;;;;;3.40;1.70;;;21.50;61.10;;;;;;5017707;28;20022;-70
2021/05/26 12:28:22;;;;;;;3.58;1.70;;;21.00;61.70;;;;;;5017994;28;20081;-70
2021/05/26 12:30:50;;;;;;;2.80;1.30;;;20.70;60.20;;;;;;5017965;28;20108;-70
2021/05/26 12:33:18;;;;;;;7.00;1.50;;;20.40;67.90;;;;;;5017654;28;20041;-70
2021/05/26 12:36:05;;;;;;;2.80;1.42;;;20.60;69.70;;;;;;5017574;28;20026;-70
2021/05/26 12:38:36;;;;;;;2.88;1.58;;;21.10;57.90;;;;;;5017873;28;20389;-70
2021/05/26 12:41:33;;;;;;;3.28;1.88;;;21.20;64.40;;;;;;5017716;28;20030;-70
2021/05/26 12:44:01;;;;;;;4.70;2.22;;;21.20;62.20;;;;;;5016893;28;20377;-70
2021/05/26 12:46:43;;;;;;;4.32;1.80;;;21.30;59.40;;;;;;5017761;28;20030;-70
2021/05/26 12:49:32;;;;;;;3.03;1.50;;;21.40;61.00;;;;;;5017238;28;20060;-70
2021/05/26 12:52:01;;;;;;;7.20;1.67;;;21.30;61.50;;;;;;5017662;28;20034;-70
2021/05/26 12:54:27;;;;;;;5.55;1.92;;;21.00;63.10;;;;;;5017255;28;20429;-70
2021/05/26 12:57:09;;;;;;;4.15;2.10;;;20.70;63.00;;;;;;5017595;28;20322;-70